Time;durP1;ratioP1;P1;durP2;ratioP2;P2;SDS_P1;SDS_P2;PMS_P1;PMS_P2;Temp;Humidity;BMP_temperature;BMP_pressure;BME280_temperature;BME280_humidity;BME280_pressure;Samples;Min_cycle;Max_cycle;Signal;HPM_P1;HPM_P2
2023/09/17 00:00:17;;;;;;;12.40;10.80;;;;;;;19.86;94.27;95389.69;5052041;28;20440;-80
2023/09/17 00:02:43;;;;;;;10.80;9.73;;;;;;;19.92;94.12;95383.66;5033084;28;20954;-80
2023/09/17 00:05:10;;;;;;;14.13;10.70;;;;;;;20.00;94.34;95390.78;5052041;28;20837;-80
2023/09/17 00:07:37;;;;;;;11.83;9.70;;;;;;;19.91;89.98;95382.00;5052423;28;20449;-80
2023/09/17 00:10:04;;;;;;;15.10;10.17;;;;;;;20.02;91.56;95388.78;5052556;28;20440;-82
2023/09/17 00:12:31;;;;;;;14.43;10.00;;;;;;;19.92;90.65;95382.84;5055444;28;20479;-81
2023/09/17 00:15:00;;;;;;;10.20;9.10;;;;;;;20.00;89.08;95388.13;5057626;28;20456;-80
2023/09/17 00:17:26;;;;;;;12.47;10.50;;;;;;;20.07;89.27;95383.75;5067999;28;20452;-80
2023/09/17 00:19:53;;;;;;;11.23;9.10;;;;;;;20.14;89.73;95384.69;5065055;28;20944;-80
2023/09/17 00:22:20;;;;;;;15.90;9.40;;;;;;;20.09;89.35;95389.72;5055834;28;20449;-80
2023/09/17 00:24:47;;;;;;;10.70;9.53;;;;;;;20.23;89.28;95386.28;5055816;28;20482;-80
2023/09/17 00:27:13;;;;;;;9.90;9.00;;;;;;;20.29;88.86;95379.44;5055726;28;20492;-80
2023/09/17 00:29:40;;;;;;;15.37;9.70;;;;;;;20.34;88.58;95379.75;5055596;28;20441;-80
2023/09/17 00:32:08;;;;;;;12.07;10.40;;;;;;;20.35;89.01;95362.75;5055605;28;20430;-80
2023/09/17 00:34:35;;;;;;;10.30;9.30;;;;;;;20.40;88.49;95363.06;5055925;28;20455;-80
2023/09/17 00:37:03;;;;;;;13.77;11.77;;;;;;;20.33;88.15;95368.25;5055666;28;20532;-80
2023/09/17 00:39:29;;;;;;;12.10;10.57;;;;;;;20.31;87.83;95358.78;5055550;28;20478;-80
2023/09/17 00:41:56;;;;;;;12.90;11.60;;;;;;;20.37;88.12;95358.88;5036532;28;20426;-80
2023/09/17 00:44:23;;;;;;;16.23;12.00;;;;;;;20.38;87.33;95359.72;5055967;28;20486;-80
2023/09/17 00:46:51;;;;;;;16.40;12.80;;;;;;;20.20;87.74;95362.66;5055603;28;20463;-80
2023/09/17 00:49:19;;;;;;;16.23;12.87;;;;;;;20.20;88.09;95362.66;5055578;28;20439;-80
2023/09/17 00:51:46;;;;;;;13.63;12.20;;;;;;;20.28;88.26;95359.13;5055286;28;20442;-80
2023/09/17 00:54:15;;;;;;;18.87;14.40;;;;;;;20.31;88.17;95364.94;5055397;28;20843;-79
2023/09/17 00:56:42;;;;;;;16.30;14.13;;;;;;;20.35;87.97;95363.56;5055267;28;20436;-80
2023/09/17 00:59:10;;;;;;;21.07;14.23;;;;;;;20.37;87.95;95366.06;5054966;28;20785;-80
2023/09/17 01:01:38;;;;;;;15.40;13.80;;;;;;;20.24;87.87;95366.66;5020544;28;20505;-80
2023/09/17 01:04:05;;;;;;;19.80;16.70;;;;;;;20.12;88.95;95357.41;5055041;28;20438;-80
2023/09/17 01:06:33;;;;;;;20.13;18.03;;;;;;;20.14;89.23;95368.72;5055144;28;20493;-80
2023/09/17 01:09:02;;;;;;;25.57;17.30;;;;;;;20.17;89.42;95365.69;5055034;28;21017;-80
2023/09/17 01:11:29;;;;;;;19.80;16.03;;;;;;;20.17;89.26;95357.69;5054851;28;20475;-80
2023/09/17 01:14:08;;;;;;;18.23;15.00;;;;;;;20.17;89.11;95363.03;5055093;28;20453;-80
2023/09/17 01:16:35;;;;;;;24.53;17.70;;;;;;;20.19;89.32;95357.50;5055228;28;20463;-80
2023/09/17 01:19:03;;;;;;;21.53;17.37;;;;;;;19.96;90.35;95349.53;5055122;28;20438;-80
2023/09/17 01:21:37;;;;;;;19.67;16.67;;;;;;;20.01;90.48;95355.16;5054640;28;21015;-80
2023/09/17 01:24:21;;;;;;;19.43;17.33;;;;;;;20.05;90.47;95348.47;5020919;28;20438;-80
2023/09/17 01:26:59;;;;;;;22.83;18.47;;;;;;;20.14;90.71;95344.72;5054708;28;20945;-80
2023/09/17 01:29:26;;;;;;;23.77;17.13;;;;;;;20.17;90.06;95339.03;5054768;28;20448;-80
2023/09/17 01:31:55;;;;;;;24.23;17.13;;;;;;;20.25;89.86;95341.66;5054675;28;20441;-80
2023/09/17 01:34:22;;;;;;;20.17;16.63;;;;;;;20.25;88.86;95347.00;5054497;28;20944;-79
2023/09/17 01:36:50;;;;;;;23.97;18.70;;;;;;;20.22;90.16;95346.50;5054794;28;20468;-80
2023/09/17 01:39:23;;;;;;;18.13;14.90;;;;;;;20.24;89.43;95341.81;5054758;28;20473;-80
2023/09/17 01:41:51;;;;;;;26.33;19.93;;;;;;;20.33;89.52;95343.44;5054461;28;20442;-80
2023/09/17 01:44:21;;;;;;;20.93;17.40;;;;;;;20.25;90.56;95348.84;5054433;28;20438;-80
2023/09/17 01:46:49;;;;;;;22.00;18.33;;;;;;;20.16;90.55;95355.22;5054631;28;20450;-80
2023/09/17 01:49:16;;;;;;;23.10;18.17;;;;;;;20.02;90.07;95351.50;5054180;28;20967;-80
2023/09/17 01:51:44;;;;;;;25.37;19.13;;;;;;;20.03;91.07;95345.16;5054281;28;20958;-79
2023/09/17 01:54:11;;;;;;;23.27;18.60;;;;;;;19.67;92.06;95348.38;5054696;28;20916;-80
2023/09/17 01:56:38;;;;;;;23.40;18.60;;;;;;;19.77;92.51;95348.13;5054192;28;20852;-80
2023/09/17 01:59:05;;;;;;;26.50;21.13;;;;;;;19.79;93.78;95351.47;5054185;28;20813;-80
2023/09/17 02:01:34;;;;;;;24.53;19.57;;;;;;;19.83;94.49;95344.78;5019212;28;20529;-80
2023/09/17 02:04:00;;;;;;;22.37;19.93;;;;;;;19.91;95.24;95343.88;5054160;28;20442;-80
2023/09/17 02:06:27;;;;;;;22.53;18.83;;;;;;;20.01;96.58;95347.16;5053940;28;20491;-80
2023/09/17 02:08:54;;;;;;;29.00;20.50;;;;;;;20.04;96.68;95344.16;5054313;28;20481;-80
2023/09/17 02:11:21;;;;;;;25.57;20.30;;;;;;;20.01;97.22;95342.66;5053739;28;20477;-80
2023/09/17 02:13:48;;;;;;;26.20;20.57;;;;;;;20.05;97.34;95343.97;5053606;28;20447;-80
2023/09/17 02:16:15;;;;;;;26.50;21.80;;;;;;;19.98;97.51;95352.84;5019019;28;20477;-80
2023/09/17 02:18:43;;;;;;;24.63;20.67;;;;;;;19.98;97.20;95356.34;5053962;28;20791;-80
2023/09/17 02:21:10;;;;;;;26.50;20.77;;;;;;;19.96;97.19;95358.34;5018565;28;20443;-80
2023/09/17 02:23:37;;;;;;;26.17;21.07;;;;;;;19.97;96.67;95360.00;5018769;28;20438;-80
2023/09/17 02:26:03;;;;;;;36.40;22.10;;;;;;;19.97;97.10;95360.00;5053735;28;20485;-80
2023/09/17 02:28:30;;;;;;;29.23;22.03;;;;;;;19.99;96.87;95357.16;5053545;28;20441;-80
2023/09/17 02:30:59;;;;;;;28.50;21.40;;;;;;;19.95;95.92;95356.69;5053713;28;20441;-80
2023/09/17 02:33:26;;;;;;;28.80;21.53;;;;;;;19.84;95.73;95358.91;5053295;28;20449;-80
2023/09/17 02:35:54;;;;;;;30.17;21.63;;;;;;;19.70;94.62;95353.34;5053639;28;20823;-81
2023/09/17 02:38:21;;;;;;;33.70;21.63;;;;;;;19.70;94.66;95353.34;5053237;28;20448;-80
2023/09/17 02:40:48;;;;;;;28.17;21.00;;;;;;;19.67;95.37;95347.53;5053329;28;20445;-80
2023/09/17 02:43:15;;;;;;;28.53;19.83;;;;;;;19.58;93.97;95359.22;5053279;28;20494;-80
2023/09/17 02:45:43;;;;;;;24.47;21.23;;;;;;;19.53;95.10;95357.06;5053046;28;20481;-80
2023/09/17 02:48:11;;;;;;;25.83;20.33;;;;;;;19.58;95.14;95354.72;5053275;28;20943;-80
2023/09/17 02:50:39;;;;;;;26.03;20.90;;;;;;;19.69;95.44;95353.53;5053236;28;20446;-80
2023/09/17 02:53:08;;;;;;;31.03;20.20;;;;;;;19.76;94.46;95355.31;5053274;28;20480;-80
2023/09/17 02:55:35;;;;;;;23.87;20.30;;;;;;;19.72;94.74;95343.34;5053196;28;20500;-80
2023/09/17 02:58:02;;;;;;;31.40;21.97;;;;;;;19.72;95.31;95345.19;5053081;28;20434;-80
2023/09/17 03:00:31;;;;;;;24.83;20.00;;;;;;;19.72;95.38;95337.19;5052981;28;20448;-80
2023/09/17 03:02:58;;;;;;;24.17;19.37;;;;;;;19.67;95.32;95334.22;5053025;28;20441;-80
2023/09/17 03:05:25;;;;;;;25.30;20.43;;;;;;;19.46;96.29;95342.78;5052874;28;20490;-80
2023/09/17 03:07:53;;;;;;;32.43;22.57;;;;;;;19.52;94.59;95342.06;5053183;28;20939;-80
2023/09/17 03:10:22;;;;;;;25.40;19.93;;;;;;;19.27;94.20;95336.03;5052880;28;20510;-80
2023/09/17 03:12:50;;;;;;;32.47;22.33;;;;;;;19.24;94.79;95327.56;5052645;28;20545;-80
2023/09/17 03:15:17;;;;;;;27.83;21.10;;;;;;;19.35;94.87;95333.31;5053116;28;20475;-80
2023/09/17 03:17:44;;;;;;;29.43;22.07;;;;;;;19.40;94.45;95340.81;5052919;28;20449;-80
2023/09/17 03:20:17;;;;;;;29.20;21.13;;;;;;;19.47;94.00;95336.44;5052835;28;20464;-80
2023/09/17 03:22:44;;;;;;;26.70;20.67;;;;;;;19.54;94.02;95339.28;5052887;28;20440;-80
2023/09/17 03:25:12;;;;;;;28.53;21.10;;;;;;;19.56;93.28;95335.44;5052745;28;20511;-80
2023/09/17 03:27:41;;;;;;;22.67;19.87;;;;;;;19.54;92.53;95336.59;5052837;28;20445;-80
2023/09/17 03:30:09;;;;;;;26.20;20.37;;;;;;;19.54;92.13;95336.59;5052514;28;20445;-80
2023/09/17 03:32:36;;;;;;;24.00;19.30;;;;;;;19.46;91.98;95346.28;5017718;28;20442;-80
2023/09/17 03:35:03;;;;;;;35.67;23.03;;;;;;;19.47;91.88;95347.09;5052629;28;20537;-80
2023/09/17 03:37:30;;;;;;;27.87;21.20;;;;;;;19.48;92.22;95338.94;5052530;28;20444;-80
2023/09/17 03:40:10;;;;;;;35.57;22.17;;;;;;;19.53;92.32;95349.09;5052924;28;20433;-80
2023/09/17 03:42:37;;;;;;;28.70;22.03;;;;;;;19.56;92.43;95340.75;5052432;28;20450;-80
2023/09/17 03:45:09;;;;;;;26.60;18.60;;;;;;;19.42;92.82;95336.16;5051850;28;20983;-80
2023/09/17 03:47:36;;;;;;;28.83;21.43;;;;;;;19.52;92.62;95343.91;5052021;28;20994;-80
2023/09/17 03:50:05;;;;;;;28.33;21.43;;;;;;;19.51;92.73;95337.75;5017573;28;20437;-80
2023/09/17 03:52:34;;;;;;;31.67;21.30;;;;;;;19.59;92.51;95340.41;5052631;28;20496;-80
2023/09/17 03:55:01;;;;;;;26.30;21.90;;;;;;;19.62;92.62;95340.06;5052628;28;20457;-80
2023/09/17 03:57:29;;;;;;;25.70;20.67;;;;;;;19.64;92.26;95345.19;5052395;28;20925;-80
2023/09/17 03:59:55;;;;;;;28.50;20.80;;;;;;;19.64;91.93;95345.19;5033451;28;20457;-80
2023/09/17 04:02:24;;;;;;;27.07;20.83;;;;;;;19.70;92.18;95345.34;5051945;28;20504;-80
2023/09/17 04:04:51;;;;;;;31.50;19.57;;;;;;;19.76;92.51;95354.47;5052778;28;20553;-80
2023/09/17 04:07:18;;;;;;;25.80;19.90;;;;;;;19.82;93.16;95355.59;5051887;28;20576;-80
2023/09/17 04:09:45;;;;;;;28.53;19.30;;;;;;;19.85;93.28;95353.41;5052388;28;20441;-80
2023/09/17 04:12:12;;;;;;;24.17;18.73;;;;;;;19.85;93.44;95355.25;5052245;28;20470;-80
2023/09/17 04:14:38;;;;;;;24.80;19.10;;;;;;;19.77;94.47;95356.97;5051043;28;20631;-80
2023/09/17 04:17:06;;;;;;;33.03;22.73;;;;;;;19.73;93.88;95360.97;5051480;28;20461;-80
2023/09/17 04:19:34;;;;;;;30.53;23.57;;;;;;;19.75;94.46;95361.63;5058414;28;20430;-78
2023/09/17 04:22:02;;;;;;;35.93;22.67;;;;;;;19.65;95.02;95355.69;5061178;28;20447;-79
2023/09/17 04:24:29;;;;;;;35.37;24.00;;;;;;;19.61;96.51;95354.38;5034823;28;20492;-79
2023/09/17 04:26:56;;;;;;;31.23;23.33;;;;;;;19.61;96.41;95359.69;5051685;28;20521;-79
2023/09/17 04:29:23;;;;;;;32.97;22.60;;;;;;;19.59;96.58;95359.03;5051933;28;20452;-80
2023/09/17 04:31:51;;;;;;;26.20;18.67;;;;;;;19.41;96.06;95366.44;5051642;28;20441;-79
2023/09/17 04:34:19;;;;;;;24.17;17.83;;;;;;;19.48;95.79;95368.22;5051696;28;20480;-79
2023/09/17 04:36:48;;;;;;;28.00;19.10;;;;;;;19.51;95.79;95361.72;5051619;28;20454;-79
2023/09/17 04:39:16;;;;;;;23.80;18.60;;;;;;;19.55;96.22;95363.06;5051322;28;20446;-79
2023/09/17 04:41:43;;;;;;;26.67;20.07;;;;;;;19.63;96.40;95371.00;5051291;28;20466;-79
2023/09/17 04:44:11;;;;;;;24.30;17.67;;;;;;;19.64;96.63;95375.31;5050637;28;20468;-79
2023/09/17 04:46:40;;;;;;;26.87;19.23;;;;;;;19.64;96.60;95364.66;5051071;28;20488;-79
2023/09/17 04:49:07;;;;;;;23.90;18.50;;;;;;;19.73;96.98;95362.81;5051165;28;20817;-79
2023/09/17 04:51:34;;;;;;;21.33;16.80;;;;;;;19.74;97.51;95364.47;5050997;28;20474;-80
2023/09/17 04:54:02;;;;;;;23.77;18.10;;;;;;;19.80;96.69;95364.59;5050885;28;20453;-81
2023/09/17 04:56:29;;;;;;;30.00;19.93;;;;;;;19.83;96.55;95370.56;5032513;28;20442;-80
2023/09/17 04:58:58;;;;;;;30.73;19.27;;;;;;;19.85;96.70;95373.88;5054569;28;20441;-79
2023/09/17 05:01:25;;;;;;;24.00;18.47;;;;;;;19.89;97.44;95370.69;5054699;28;20445;-80
2023/09/17 05:03:51;;;;;;;26.30;18.63;;;;;;;19.93;98.01;95373.84;5054713;28;20909;-79
2023/09/17 05:06:18;;;;;;;27.63;20.50;;;;;;;19.92;97.35;95377.50;5054538;28;20493;-79
2023/09/17 05:08:45;;;;;;;28.90;20.80;;;;;;;19.67;98.43;95371.50;5054329;28;20438;-79
2023/09/17 05:11:13;;;;;;;28.00;20.03;;;;;;;19.72;97.97;95369.97;5054098;28;20476;-80
2023/09/17 05:13:40;;;;;;;28.43;20.57;;;;;;;19.76;98.64;95371.28;5054178;28;20445;-79
2023/09/17 05:16:07;;;;;;;33.27;21.53;;;;;;;19.78;98.72;95371.94;5054084;28;20456;-80
2023/09/17 05:18:34;;;;;;;30.20;22.80;;;;;;;19.72;99.14;95363.81;5054214;28;20504;-79
2023/09/17 05:21:00;;;;;;;32.53;20.50;;;;;;;19.70;99.80;95369.31;5018893;28;20433;-79
2023/09/17 05:23:27;;;;;;;32.33;20.70;;;;;;;19.62;99.49;95369.34;5054708;28;20453;-79
2023/09/17 05:25:55;;;;;;;30.60;20.00;;;;;;;19.58;99.78;95368.03;5054226;28;20487;-79
2023/09/17 05:28:23;;;;;;;36.77;21.00;;;;;;;19.66;100.00;95373.34;5054209;28;20526;-79
2023/09/17 05:30:50;;;;;;;26.53;21.00;;;;;;;19.60;99.52;95373.19;5054119;28;20440;-80
2023/09/17 05:33:17;;;;;;;29.83;20.73;;;;;;;19.50;100.00;95366.22;5053789;28;20955;-80
2023/09/17 05:35:44;;;;;;;30.53;22.00;;;;;;;19.52;100.00;95362.53;5054131;28;20457;-79
2023/09/17 05:38:10;;;;;;;31.33;21.07;;;;;;;19.60;100.00;95366.03;5053789;28;20443;-80
2023/09/17 05:40:37;;;;;;;30.37;21.20;;;;;;;19.57;100.00;95369.03;5054528;28;20461;-80
2023/09/17 05:43:05;;;;;;;32.67;21.17;;;;;;;19.52;100.00;95368.69;5054581;28;20442;-79
2023/09/17 05:45:33;;;;;;;36.90;23.00;;;;;;;19.58;100.00;95368.03;5035169;28;20933;-79
2023/09/17 05:48:00;;;;;;;34.00;22.33;;;;;;;19.57;100.00;95363.72;5053481;28;20484;-80
2023/09/17 05:50:26;;;;;;;38.97;22.73;;;;;;;19.50;100.00;95366.22;5053592;28;20449;-79
2023/09/17 05:52:53;;;;;;;33.67;21.90;;;;;;;19.43;100.00;95359.09;5053921;28;20444;-80
2023/09/17 05:55:20;;;;;;;28.37;20.97;;;;;;;19.52;100.00;95365.22;5053825;28;20437;-80
2023/09/17 05:57:47;;;;;;;27.87;19.97;;;;;;;19.47;100.00;95363.06;5053558;28;20448;-79
2023/09/17 06:00:15;;;;;;;28.80;20.10;;;;;;;19.41;100.00;95369.09;5053454;28;20445;-79
2023/09/17 06:02:44;;;;;;;29.33;21.70;;;;;;;19.38;100.00;95364.94;5053774;28;20446;-79
2023/09/17 06:05:11;;;;;;;32.67;22.10;;;;;;;19.40;100.00;95360.28;5052900;28;20614;-79
2023/09/17 06:07:38;;;;;;;31.00;22.00;;;;;;;19.41;100.00;95361.09;5053719;28;20898;-79
2023/09/17 06:10:05;;;;;;;29.63;21.70;;;;;;;19.62;100.00;95371.16;5052506;28;20448;-79
2023/09/17 06:12:32;;;;;;;30.47;20.93;;;;;;;19.65;100.00;95379.63;5054527;28;20532;-79
2023/09/17 06:14:59;;;;;;;28.20;22.77;;;;;;;19.65;100.00;95376.97;5053053;28;20457;-79
2023/09/17 06:17:26;;;;;;;31.60;20.93;;;;;;;19.69;100.00;95377.47;5018061;28;20971;-79
2023/09/17 06:19:54;;;;;;;38.20;24.47;;;;;;;19.85;100.00;95384.53;5018076;28;20439;-80
2023/09/17 06:22:21;;;;;;;37.00;22.00;;;;;;;19.91;100.00;95382.00;5053621;28;20447;-79
2023/09/17 06:24:47;;;;;;;39.13;24.00;;;;;;;20.08;100.00;95382.75;5053750;28;20517;-80
2023/09/17 06:27:14;;;;;;;32.00;23.07;;;;;;;20.17;100.00;95384.34;5053447;28;20991;-80
2023/09/17 06:29:41;;;;;;;32.67;21.33;;;;;;;20.16;100.00;95385.34;5053340;28;20496;-79
2023/09/17 06:32:08;;;;;;;34.83;21.90;;;;;;;20.08;100.00;95385.41;5053563;28;20949;-79
2023/09/17 06:34:35;;;;;;;32.60;22.53;;;;;;;20.03;100.00;95396.59;5053392;28;20453;-80
2023/09/17 06:37:04;;;;;;;33.60;20.97;;;;;;;19.97;100.00;95396.47;5053101;28;20850;-79
2023/09/17 06:39:31;;;;;;;37.33;20.73;;;;;;;19.91;100.00;95394.50;5053446;28;20442;-79
2023/09/17 06:41:58;;;;;;;32.27;22.30;;;;;;;19.89;100.00;95393.84;5053339;28;20449;-79
2023/09/17 06:44:25;;;;;;;40.23;23.60;;;;;;;20.01;100.00;95395.94;5053144;28;20442;-79
2023/09/17 06:46:52;;;;;;;30.07;20.60;;;;;;;20.09;100.00;95401.22;5053363;28;20846;-80
2023/09/17 06:49:19;;;;;;;30.60;21.87;;;;;;;20.17;100.00;95402.16;5053054;28;20450;-80
2023/09/17 06:51:46;;;;;;;27.23;20.30;;;;;;;20.13;100.00;95400.88;5052778;28;20468;-80
2023/09/17 06:54:14;;;;;;;30.80;21.77;;;;;;;20.25;100.00;95400.31;5052579;28;20447;-80
2023/09/17 06:56:41;;;;;;;31.37;21.43;;;;;;;20.40;100.00;95413.72;5034114;28;20446;-80
2023/09/17 06:59:08;;;;;;;37.23;22.30;;;;;;;20.46;100.00;95406.84;5052333;28;20443;-80
2023/09/17 07:01:36;;;;;;;35.57;22.03;;;;;;;20.56;100.00;95413.59;5052421;28;20447;-79
2023/09/17 07:04:02;;;;;;;29.53;19.60;;;;;;;20.64;100.00;95404.69;5053099;28;20442;-80
2023/09/17 07:06:29;;;;;;;37.90;20.87;;;;;;;20.55;100.00;95408.44;5052547;28;20971;-80
2023/09/17 07:08:57;;;;;;;38.53;20.17;;;;;;;20.45;100.00;95402.50;5034131;28;20441;-79
2023/09/17 07:11:25;;;;;;;27.73;20.90;;;;;;;20.47;100.00;95397.81;5052249;28;20922;-80
2023/09/17 07:13:52;;;;;;;38.93;22.83;;;;;;;20.41;100.00;95399.38;5052474;28;20433;-80
2023/09/17 07:16:20;;;;;;;34.43;21.60;;;;;;;20.47;100.00;95397.81;5052600;28;20809;-80
2023/09/17 07:18:48;;;;;;;35.30;21.83;;;;;;;20.40;100.00;95395.88;5018239;28;20467;-80
2023/09/17 07:21:15;;;;;;;35.80;23.50;;;;;;;20.59;100.00;95399.09;5052665;28;20536;-79
2023/09/17 07:23:42;;;;;;;30.47;20.33;;;;;;;20.58;100.00;95410.75;5051966;28;20466;-79
2023/09/17 07:26:10;;;;;;;31.70;20.73;;;;;;;20.50;100.00;95408.13;5051615;28;20432;-79
2023/09/17 07:28:39;;;;;;;29.17;20.20;;;;;;;20.53;100.00;95415.78;5051854;28;20455;-79
2023/09/17 07:31:10;;;;;;;28.77;21.60;;;;;;;20.49;100.00;95409.97;5052513;28;20442;-79
2023/09/17 07:33:39;;;;;;;35.00;23.27;;;;;;;20.49;100.00;95412.63;5052599;28;20443;-79
2023/09/17 07:36:06;;;;;;;35.47;23.80;;;;;;;20.53;100.00;95410.44;5052437;28;20434;-79
2023/09/17 07:38:33;;;;;;;38.20;23.47;;;;;;;20.55;100.00;95424.44;5052150;28;20446;-79
2023/09/17 07:41:00;;;;;;;32.43;22.37;;;;;;;20.61;100.00;95418.41;5052126;28;20443;-80
2023/09/17 07:43:27;;;;;;;39.83;25.33;;;;;;;20.72;100.00;95417.97;5052363;28;20447;-80
2023/09/17 07:45:56;;;;;;;36.90;24.90;;;;;;;20.81;100.00;95421.38;5052099;28;20448;-79
2023/09/17 07:48:24;;;;;;;36.63;24.20;;;;;;;20.91;100.00;95427.31;5052268;28;20486;-80
2023/09/17 07:50:56;;;;;;;34.33;25.37;;;;;;;21.09;100.00;95430.47;5051905;28;20813;-80
2023/09/17 07:53:23;;;;;;;40.10;22.37;;;;;;;21.13;98.80;95421.09;5052031;28;20447;-79
2023/09/17 07:55:50;;;;;;;33.50;23.43;;;;;;;21.20;96.55;95434.53;5051909;28;20558;-79
2023/09/17 07:58:16;;;;;;;36.43;24.53;;;;;;;21.26;97.33;95431.19;5051513;28;20447;-79
2023/09/17 08:00:45;;;;;;;37.60;25.07;;;;;;;21.37;97.29;95438.72;5051713;28;20447;-79
2023/09/17 08:03:14;;;;;;;39.77;24.23;;;;;;;21.38;96.67;95429.69;5051374;28;20487;-79
2023/09/17 08:05:41;;;;;;;33.60;23.33;;;;;;;21.45;95.41;95436.00;5051515;28;20463;-79
2023/09/17 08:08:08;;;;;;;35.93;22.07;;;;;;;21.41;93.84;95429.34;5051362;28;20485;-79
2023/09/17 08:10:35;;;;;;;38.90;24.73;;;;;;;21.52;94.55;95428.06;5051326;28;20444;-79
2023/09/17 08:13:01;;;;;;;39.33;24.57;;;;;;;21.64;94.67;95419.38;5051550;28;20451;-79
2023/09/17 08:15:29;;;;;;;36.40;23.70;;;;;;;21.87;94.20;95429.13;5051476;28;20452;-79
2023/09/17 08:17:56;;;;;;;24.30;17.87;;;;;;;22.02;89.02;95429.97;5051278;28;20455;-80
2023/09/17 08:20:25;;;;;;;37.80;22.17;;;;;;;22.09;88.51;95430.88;5051973;28;20451;-80
2023/09/17 08:22:52;;;;;;;24.37;17.03;;;;;;;22.08;88.54;95433.75;5057061;28;20447;-80
2023/09/17 08:25:19;;;;;;;28.07;17.00;;;;;;;22.14;87.66;95435.66;5064853;28;20448;-80
2023/09/17 08:27:47;;;;;;;21.57;16.23;;;;;;;22.11;87.10;95436.88;5059734;28;21031;-80
2023/09/17 08:30:15;;;;;;;23.23;15.90;;;;;;;22.19;86.63;95431.41;5052060;28;20498;-79
2023/09/17 08:32:44;;;;;;;26.67;17.80;;;;;;;22.07;86.11;95437.44;5053787;28;20447;-79
2023/09/17 08:35:14;;;;;;;22.77;17.37;;;;;;;22.15;86.79;95435.47;5055093;28;20791;-79
2023/09/17 08:37:43;;;;;;;19.27;15.43;;;;;;;22.37;85.23;95436.34;5055446;28;20444;-79
2023/09/17 08:40:14;;;;;;;22.70;16.90;;;;;;;22.51;84.51;95431.94;5055323;28;20451;-79
2023/09/17 08:42:42;;;;;;;24.10;18.97;;;;;;;22.66;84.56;95426.56;5037087;28;20927;-79
2023/09/17 08:45:10;;;;;;;23.17;18.60;;;;;;;22.82;84.27;95412.94;5055010;28;20447;-80
2023/09/17 08:47:37;;;;;;;23.77;17.37;;;;;;;23.06;84.91;95417.03;5054859;28;20480;-79
2023/09/17 08:50:07;;;;;;;26.33;17.90;;;;;;;23.16;83.82;95421.06;5054955;28;20475;-79
2023/09/17 08:52:37;;;;;;;24.80;18.70;;;;;;;23.32;83.80;95419.91;5054859;28;20531;-79
2023/09/17 08:55:08;;;;;;;27.70;20.73;;;;;;;23.51;84.53;95417.56;5054752;28;20498;-79
2023/09/17 08:57:38;;;;;;;23.77;18.00;;;;;;;23.49;81.25;95420.44;5054512;28;20551;-79
2023/09/17 09:00:09;;;;;;;25.70;17.23;;;;;;;23.62;79.86;95427.75;5054493;28;20444;-79
2023/09/17 09:02:42;;;;;;;21.50;17.77;;;;;;;23.70;78.91;95422.22;5054538;28;20444;-79
2023/09/17 09:05:12;;;;;;;22.70;15.70;;;;;;;23.77;78.79;95423.94;5054473;28;20954;-79
2023/09/17 09:07:40;;;;;;;22.83;18.53;;;;;;;23.78;78.77;95416.72;5055066;28;20488;-80
2023/09/17 09:10:09;;;;;;;25.57;17.77;;;;;;;23.79;79.26;95416.53;5054926;28;20483;-79
2023/09/17 09:12:37;;;;;;;21.20;16.87;;;;;;;23.79;78.98;95421.06;5054649;28;20487;-79
2023/09/17 09:15:07;;;;;;;23.83;18.27;;;;;;;23.79;79.86;95416.53;5055094;28;20437;-80
2023/09/17 09:17:33;;;;;;;26.10;18.30;;;;;;;23.74;79.48;95408.25;5020001;28;20442;-80
2023/09/17 09:20:00;;;;;;;22.70;18.33;;;;;;;23.68;80.79;95408.22;5054547;28;20817;-80
2023/09/17 09:22:27;;;;;;;22.47;17.80;;;;;;;23.71;79.22;95413.19;5054849;28;20449;-79
2023/09/17 09:24:54;;;;;;;26.23;17.70;;;;;;;23.59;78.49;95409.41;5019884;28;20801;-79
2023/09/17 09:27:22;;;;;;;21.90;19.13;;;;;;;23.46;80.57;95410.97;5035818;28;21006;-80
2023/09/17 09:29:49;;;;;;;29.23;19.40;;;;;;;23.35;79.38;95406.13;5055008;28;20440;-79
2023/09/17 09:32:19;;;;;;;23.33;18.77;;;;;;;23.36;79.40;95412.31;5019540;28;20445;-80
2023/09/17 09:34:48;;;;;;;22.90;19.63;;;;;;;23.29;81.62;95403.41;5054462;28;20455;-81
2023/09/17 09:37:15;;;;;;;24.67;20.50;;;;;;;23.43;80.58;95411.34;5054325;28;20954;-80
2023/09/17 09:39:43;;;;;;;23.73;19.00;;;;;;;23.39;80.59;95401.22;5054404;28;20847;-79
2023/09/17 09:42:13;;;;;;;25.40;19.03;;;;;;;23.45;79.73;95403.13;5054676;28;20448;-80
2023/09/17 09:44:41;;;;;;;26.97;19.03;;;;;;;23.56;79.48;95404.44;5054924;28;20448;-80
2023/09/17 09:47:08;;;;;;;26.97;20.37;;;;;;;23.61;80.19;95402.81;5054186;28;20445;-80
2023/09/17 09:49:40;;;;;;;23.90;17.70;;;;;;;23.64;79.34;95407.78;5054344;28;20438;-80
2023/09/17 09:52:07;;;;;;;23.07;18.77;;;;;;;23.38;78.92;95413.78;5054436;28;20465;-80
2023/09/17 09:54:34;;;;;;;27.00;21.53;;;;;;;23.48;79.56;95405.41;5053928;28;20451;-80
2023/09/17 09:57:04;;;;;;;27.60;20.50;;;;;;;23.62;79.92;95414.38;5054361;28;20449;-80
2023/09/17 09:59:32;;;;;;;29.93;19.80;;;;;;;23.58;78.52;95405.06;5054037;28;20801;-80
2023/09/17 10:02:02;;;;;;;25.93;19.27;;;;;;;23.48;79.18;95414.28;5054143;28;20441;-80
2023/09/17 10:04:30;;;;;;;22.77;19.83;;;;;;;23.46;78.37;95402.94;5054410;28;20445;-79
2023/09/17 10:06:57;;;;;;;25.70;19.97;;;;;;;23.49;77.82;95405.22;5053909;28;20460;-80
2023/09/17 10:09:25;;;;;;;26.33;19.80;;;;;;;23.07;78.63;95410.66;5054097;28;20495;-80
2023/09/17 10:11:52;;;;;;;29.87;18.47;;;;;;;23.23;79.09;95410.38;5054124;28;20475;-80
2023/09/17 10:14:21;;;;;;;27.13;20.50;;;;;;;23.36;80.82;95415.00;5053763;28;20459;-80
2023/09/17 10:16:49;;;;;;;30.43;22.67;;;;;;;23.35;81.05;95406.13;5053863;28;20456;-80
2023/09/17 10:19:21;;;;;;;26.00;21.30;;;;;;;23.28;80.87;95402.59;5053681;28;20446;-80
2023/09/17 10:21:48;;;;;;;29.03;21.10;;;;;;;23.29;80.91;95400.75;5053755;28;20442;-80
2023/09/17 10:24:17;;;;;;;35.30;22.03;;;;;;;23.27;80.73;95405.47;5053695;28;20448;-80
2023/09/17 10:26:45;;;;;;;35.50;23.80;;;;;;;23.26;81.83;95398.47;5053557;28;20448;-80
2023/09/17 10:29:14;;;;;;;31.90;21.80;;;;;;;23.34;81.63;95404.47;5053421;28;20494;-79
2023/09/17 10:31:43;;;;;;;33.33;20.80;;;;;;;23.44;81.17;95398.78;5053788;28;20441;-80
2023/09/17 10:34:13;;;;;;;27.60;21.20;;;;;;;23.60;80.58;95398.50;5053394;28;20813;-80
2023/09/17 10:36:44;;;;;;;27.53;20.90;;;;;;;23.64;77.63;95404.28;5053847;28;20448;-80
2023/09/17 10:39:15;;;;;;;24.20;18.63;;;;;;;23.76;77.60;95406.22;5053524;28;20484;-80
2023/09/17 10:41:44;;;;;;;27.27;20.37;;;;;;;23.84;77.76;95399.84;5053477;28;20444;-80
2023/09/17 10:44:15;;;;;;;28.10;20.77;;;;;;;23.99;78.11;95405.88;5053173;28;20946;-79
2023/09/17 10:46:46;;;;;;;27.13;21.30;;;;;;;23.91;76.15;95394.50;5053286;28;20496;-80
2023/09/17 10:49:13;;;;;;;24.23;21.33;;;;;;;23.86;78.43;95394.28;5053231;28;20520;-80
2023/09/17 10:51:44;;;;;;;26.10;19.77;;;;;;;23.87;76.54;95399.44;5052872;28;20451;-80
2023/09/17 10:54:11;;;;;;;33.23;20.73;;;;;;;23.68;77.21;95392.13;5052875;28;20471;-79
2023/09/17 10:56:41;;;;;;;23.07;20.10;;;;;;;23.64;78.08;95386.34;5017552;28;20875;-80
2023/09/17 10:59:11;;;;;;;25.90;20.10;;;;;;;23.69;77.89;95388.41;5052718;28;20445;-80
2023/09/17 11:01:38;;;;;;;24.20;19.67;;;;;;;23.92;78.26;95383.59;5053190;28;20506;-80
2023/09/17 11:04:10;;;;;;;27.53;20.50;;;;;;;24.12;80.44;95375.63;5053038;28;20495;-80
2023/09/17 11:06:39;;;;;;;28.17;21.70;;;;;;;24.29;77.90;95379.63;5052876;28;20452;-80
2023/09/17 11:09:07;;;;;;;26.50;19.97;;;;;;;24.42;75.88;95369.94;5052745;28;20484;-80
2023/09/17 11:11:35;;;;;;;27.67;21.87;;;;;;;24.54;74.91;95368.28;5052550;28;20469;-80
2023/09/17 11:14:04;;;;;;;30.53;21.30;;;;;;;24.63;74.87;95362.53;5053057;28;20520;-80
2023/09/17 11:16:34;;;;;;;28.63;20.10;;;;;;;24.74;73.76;95363.78;5017954;28;20450;-80
2023/09/17 11:19:09;;;;;;;24.97;19.70;;;;;;;24.81;73.11;95358.41;5052768;28;20506;-80